Time;durP1;ratioP1;P1;durP2;ratioP2;P2;SDS_P1;SDS_P2;PMS_P1;PMS_P2;Temp;Humidity;BMP_temperature;BMP_pressure;BME280_temperature;BME280_humidity;BME280_pressure;Samples;Min_cycle;Max_cycle;Signal;HPM_P1;HPM_P2
2023/10/29 00:02:03;;;;;;;2.78;1.20;;;;;;;11.63;100.00;99119.38;6245620;23;20012;-81
2023/10/29 00:04:35;;;;;;;2.17;1.20;;;;;;;11.34;100.00;99073.81;6245967;23;20106;-82
2023/10/29 00:07:01;;;;;;;5.63;1.80;;;;;;;11.65;100.00;99120.03;6245938;23;20067;-80
2023/10/29 00:09:26;;;;;;;4.45;1.30;;;;;;;11.59;100.00;99108.47;6245828;23;20007;-80
2023/10/29 00:11:52;;;;;;;2.22;0.98;;;;;;;11.70;100.00;99121.22;6245588;23;20000;-81
2023/10/29 00:14:17;;;;;;;3.03;0.93;;;;;;;11.73;100.00;99110.59;6245580;23;20488;-80
2023/10/29 00:16:42;;;;;;;2.45;1.20;;;;;;;11.73;100.00;99100.25;6245646;23;20004;-84
2023/10/29 00:19:08;;;;;;;2.38;1.10;;;;;;;11.67;100.00;99087.06;6245558;23;20000;-81
2023/10/29 00:21:34;;;;;;;4.00;1.40;;;;;;;11.41;100.00;99043.84;6245837;23;20004;-82
2023/10/29 00:24:00;;;;;;;4.18;1.23;;;;;;;11.66;100.00;99083.69;6244110;23;20043;-85
2023/10/29 00:29:56;;;;;;;3.90;1.27;;;;;;;11.30;100.00;99001.88;6245716;23;20042;-86
2023/10/29 00:32:21;;;;;;;3.47;1.20;;;;;;;11.11;100.00;98962.31;6245698;23;20062;-87
2023/10/29 00:34:48;;;;;;;2.05;1.20;;;;;;;11.27;100.00;98991.84;6245641;23;20016;-85
2023/10/29 00:37:16;;;;;;;2.42;1.10;;;;;;;11.63;100.00;99047.78;6245610;23;20430;-87
2023/10/29 00:39:41;;;;;;;2.08;1.20;;;;;;;11.70;100.00;99069.50;6245871;23;20054;-85
2023/10/29 00:42:09;;;;;;;3.60;1.40;;;;;;;11.57;100.00;99044.97;6245372;23;20010;-85
2023/10/29 00:44:35;;;;;;;4.03;1.27;;;;;;;11.69;100.00;99048.94;6245465;23;20000;-84
2023/10/29 00:47:00;;;;;;;4.25;1.20;;;;;;;11.79;100.00;99041.94;6245309;23;20010;-87
2023/10/29 00:49:26;;;;;;;3.28;1.15;;;;;;;11.85;100.00;99063.84;6245761;23;20000;-86
2023/10/29 00:51:52;;;;;;;3.45;1.45;;;;;;;11.88;100.00;99073.88;6245294;23;20000;-84
2023/10/29 00:54:17;;;;;;;3.75;1.27;;;;;;;11.82;100.00;99056.41;6245753;23;20315;-87
2023/10/29 00:56:42;;;;;;;2.42;1.10;;;;;;;11.76;100.00;99032.72;6245233;23;20012;-87
2023/10/29 00:59:11;;;;;;;6.10;1.55;;;;;;;11.94;100.00;99057.78;6245301;23;20430;-87
2023/10/29 01:01:37;;;;;;;3.05;1.08;;;;;;;11.97;100.00;99049.72;6245185;23;20000;-86
2023/10/29 01:04:04;;;;;;;2.70;1.00;;;;;;;11.96;100.00;99035.97;6245280;23;20004;-86
2023/10/29 01:06:31;;;;;;;4.55;1.30;;;;;;;11.74;100.00;99001.00;6245679;23;20075;-87
2023/10/29 01:08:56;;;;;;;2.95;1.00;;;;;;;11.61;100.00;98979.09;6245151;23;20024;-87
2023/10/29 01:11:22;;;;;;;3.45;1.45;;;;;;;11.97;100.00;99029.84;6245291;23;20011;-85
2023/10/29 01:13:48;;;;;;;4.70;1.30;;;;;;;11.93;100.00;99013.00;6244868;23;20012;-85
2023/10/29 01:16:13;;;;;;;3.50;1.55;;;;;;;12.01;100.00;99023.44;6245223;23;20043;-86
2023/10/29 01:18:38;;;;;;;3.53;1.23;;;;;;;12.03;100.00;99015.50;6245537;23;20028;-81
2023/10/29 01:21:04;;;;;;;3.35;1.20;;;;;;;12.04;100.00;99005.00;6245467;23;20127;-84
2023/10/29 01:23:30;;;;;;;4.97;1.58;;;;;;;11.87;100.00;98989.50;6245336;23;20004;-86
2023/10/29 01:26:04;;;;;;;2.70;1.13;;;;;;;11.96;100.00;98998.94;6245502;23;20028;-85
2023/10/29 01:28:29;;;;;;;5.13;1.20;;;;;;;11.93;100.00;98991.50;6245146;23;20099;-88
2023/10/29 01:30:55;;;;;;;4.20;1.10;;;;;;;11.99;100.00;98999.47;6245119;23;20374;-83
2023/10/29 01:33:20;;;;;;;1.63;1.00;;;;;;;11.98;100.00;99015.94;6217150;23;20358;-85
2023/10/29 01:35:46;;;;;;;5.25;1.20;;;;;;;12.02;100.00;99014.69;6245125;23;20004;-85
2023/10/29 01:38:11;;;;;;;2.50;1.00;;;;;;;11.87;100.00;98976.56;6245394;23;20004;-87
2023/10/29 01:40:36;;;;;;;3.30;1.00;;;;;;;11.89;100.00;98985.78;6245559;23;20000;-87
2023/10/29 01:43:05;;;;;;;3.58;1.02;;;;;;;12.05;100.00;98998.06;6244826;23;20426;-83
2023/10/29 01:45:30;;;;;;;3.63;0.88;;;;;;;12.06;100.00;98997.09;6245408;23;20008;-85
2023/10/29 01:47:55;;;;;;;4.00;1.08;;;;;;;12.04;100.00;98999.84;6245015;23;20442;-83
2023/10/29 01:50:43;;;;;;;3.00;1.20;;;;;;;12.01;100.00;98984.63;6241319;22;20020;-86
2023/10/29 01:53:16;;;;;;;3.20;1.10;;;;;;;11.03;100.00;98824.50;6245652;23;20000;-86
2023/10/29 01:55:42;;;;;;;2.17;0.95;;;;;;;12.04;100.00;98989.47;6246778;23;20000;-84
2023/10/29 01:58:07;;;;;;;3.92;0.98;;;;;;;11.94;100.00;98973.25;6183874;23;20005;-85
2023/10/29 02:00:32;;;;;;;4.32;1.00;;;;;;;11.98;100.00;98986.69;6183988;23;20047;-86
2023/10/29 02:02:59;;;;;;;2.20;0.95;;;;;;;11.93;100.00;98970.81;6183991;23;20033;-84
2023/10/29 02:05:24;;;;;;;4.15;1.25;;;;;;;12.03;100.00;98993.03;6183949;23;20100;-83
2023/10/29 02:07:49;;;;;;;4.22;1.20;;;;;;;11.91;100.00;98973.56;6183995;23;20018;-84
2023/10/29 02:10:15;;;;;;;2.97;0.90;;;;;;;11.91;100.00;98972.75;6183956;23;20008;-86
2023/10/29 02:12:40;;;;;;;3.85;1.20;;;;;;;11.97;100.00;98972.13;6190010;23;20024;-82
2023/10/29 02:15:06;;;;;;;3.33;1.10;;;;;;;11.91;100.00;98968.38;6188277;23;20013;-88
2023/10/29 02:17:31;;;;;;;4.00;1.38;;;;;;;11.83;100.00;98939.06;6192235;22;20098;-86
2023/10/29 02:19:57;;;;;;;3.15;1.35;;;;;;;11.88;100.00;98953.13;6247235;23;20054;-84
2023/10/29 02:22:24;;;;;;;4.88;1.00;;;;;;;12.14;100.00;98986.81;6247099;23;20362;-84
2023/10/29 02:24:49;;;;;;;3.75;1.10;;;;;;;12.02;100.00;98968.13;6246932;23;20011;-85
2023/10/29 02:27:15;;;;;;;2.88;0.88;;;;;;;12.17;100.00;98981.31;6247020;23;20000;-84
2023/10/29 02:29:40;;;;;;;4.28;1.15;;;;;;;12.00;100.00;98959.72;6246621;23;20331;-83
2023/10/29 02:32:05;;;;;;;2.75;1.00;;;;;;;12.16;100.00;98986.66;6247031;23;20000;-87
2023/10/29 02:34:31;;;;;;;2.58;1.10;;;;;;;12.12;100.00;98991.31;6246740;23;20015;-86
2023/10/29 02:36:56;;;;;;;2.75;1.10;;;;;;;11.44;100.00;98874.75;6244049;22;20016;-87
2023/10/29 02:39:24;;;;;;;4.50;1.08;;;;;;;12.20;100.00;98981.03;6246900;23;20418;-86
2023/10/29 02:41:50;;;;;;;4.45;1.13;;;;;;;11.81;100.00;98930.63;6245410;23;20011;-85
2023/10/29 02:44:21;;;;;;;3.22;1.17;;;;;;;12.15;100.00;98983.25;6246852;23;20071;-86
2023/10/29 02:46:46;;;;;;;4.55;1.23;;;;;;;12.05;100.00;98975.59;6246649;23;20000;-86
2023/10/29 02:49:11;;;;;;;3.20;1.10;;;;;;;11.60;100.00;98913.66;6246642;23;20008;-86
2023/10/29 02:51:37;;;;;;;4.75;0.98;;;;;;;11.33;100.00;98872.41;6246705;23;20030;-83
2023/10/29 02:54:02;;;;;;;1.98;0.90;;;;;;;11.98;100.00;98978.91;6246404;23;20007;-87
2023/10/29 02:56:28;;;;;;;1.27;0.73;;;;;;;12.01;100.00;98986.41;6246526;23;20007;-87
2023/10/29 02:58:53;;;;;;;4.50;1.13;;;;;;;11.73;100.00;98916.66;6246463;23;20474;-84
2023/10/29 03:01:18;;;;;;;1.13;0.80;;;;;;;12.17;100.00;98978.72;6246476;23;20091;-85
2023/10/29 03:03:44;;;;;;;1.45;1.00;;;;;;;12.20;100.00;98978.44;6246822;23;20066;-87
2023/10/29 03:06:16;;;;;;;2.40;0.90;;;;;;;12.00;100.00;98936.44;6246323;23;20024;-85
2023/10/29 03:08:41;;;;;;;4.25;1.25;;;;;;;12.25;100.00;98976.19;6246993;23;20098;-85
2023/10/29 03:11:07;;;;;;;2.17;0.88;;;;;;;12.29;100.00;98967.19;6246777;23;20093;-85
2023/10/29 03:13:32;;;;;;;2.97;0.82;;;;;;;12.09;100.00;98931.28;6246360;23;20004;-86
2023/10/29 03:15:57;;;;;;;2.20;0.82;;;;;;;12.24;100.00;98942.72;6218180;23;20038;-85
2023/10/29 03:18:26;;;;;;;2.20;0.88;;;;;;;12.31;100.00;98954.91;6246531;23;20054;-85
2023/10/29 03:20:51;;;;;;;3.08;0.90;;;;;;;12.38;100.00;98964.63;6246894;23;20422;-80
2023/10/29 03:23:16;;;;;;;1.52;0.80;;;;;;;12.49;100.00;98979.91;6246345;23;20004;-84
2023/10/29 03:25:44;;;;;;;2.60;0.80;;;;;;;12.52;100.00;98983.00;6246386;23;20004;-83
2023/10/29 03:28:10;;;;;;;3.55;0.73;;;;;;;12.54;100.00;98990.59;6246699;23;20007;-87
2023/10/29 03:30:35;;;;;;;3.38;0.80;;;;;;;12.28;100.00;98942.25;6246247;23;20004;-87
2023/10/29 03:33:03;;;;;;;3.55;1.00;;;;;;;12.52;100.00;98983.00;6246247;23;20042;-86
2023/10/29 03:35:28;;;;;;;1.92;0.88;;;;;;;12.31;100.00;98960.06;6246076;23;20000;-87
2023/10/29 03:37:54;;;;;;;1.60;0.63;;;;;;;12.40;100.00;98983.41;6245169;23;20016;-86
2023/10/29 03:40:20;;;;;;;4.20;0.80;;;;;;;12.38;100.00;98993.09;6246148;23;20079;-83
2023/10/29 03:42:45;;;;;;;4.03;0.98;;;;;;;12.38;100.00;98991.31;6245877;23;20061;-85
2023/10/29 03:45:10;;;;;;;3.13;0.88;;;;;;;12.20;100.00;98972.47;6245404;23;20000;-86
2023/10/29 03:47:36;;;;;;;2.13;0.80;;;;;;;12.11;100.00;98947.50;6246242;23;20004;-86
2023/10/29 03:50:02;;;;;;;3.33;0.70;;;;;;;12.16;100.00;98960.78;6246005;23;20008;-87
2023/10/29 03:52:27;;;;;;;4.10;0.82;;;;;;;12.19;100.00;98945.78;6246373;23;20000;-87
2023/10/29 03:54:56;;;;;;;2.78;1.25;;;;;;;12.34;100.00;98977.88;6246069;23;20012;-84
2023/10/29 03:57:21;;;;;;;3.25;1.20;;;;;;;12.29;100.00;98977.53;6246189;23;20003;-84
2023/10/29 03:59:46;;;;;;;4.13;0.93;;;;;;;12.22;100.00;98973.94;6246062;23;20001;-81
2023/10/29 04:02:14;;;;;;;2.13;0.73;;;;;;;12.15;100.00;98977.25;6245394;23;20031;-84
2023/10/29 04:04:39;;;;;;;2.50;0.90;;;;;;;12.04;100.00;98983.50;6246204;23;20000;-85
2023/10/29 04:07:05;;;;;;;3.25;0.90;;;;;;;11.86;100.00;98962.81;6245373;23;20319;-84
2023/10/29 04:09:30;;;;;;;2.60;0.80;;;;;;;11.93;100.00;98976.78;6245841;23;20031;-85
2023/10/29 04:35:29;;;;;;;4.07;0.80;;;;;;;12.23;100.00;99014.38;6185273;23;20028;-85
2023/10/29 04:38:01;;;;;;;2.70;0.80;;;;;;;11.90;100.00;98945.25;6215150;23;20044;-86
2023/10/29 04:40:26;;;;;;;2.75;0.75;;;;;;;11.41;100.00;98852.59;6215317;23;20009;-84
2023/10/29 04:43:01;;;;;;;6.95;1.10;;;;;;;11.59;100.00;98880.16;6214933;23;20058;-85
2023/10/29 04:45:26;;;;;;;4.20;1.13;;;;;;;11.55;100.00;98891.78;6174895;23;20004;-85
2023/10/29 04:47:52;;;;;;;3.10;0.98;;;;;;;12.11;100.00;98997.47;6183263;23;20008;-84
2023/10/29 04:50:18;;;;;;;7.70;1.35;;;;;;;12.01;100.00;99005.31;6213292;23;20004;-81
2023/10/29 04:52:43;;;;;;;5.82;1.02;;;;;;;11.94;100.00;99019.00;6187718;23;20431;-85
2023/10/29 04:55:09;;;;;;;4.18;1.10;;;;;;;11.94;100.00;99008.66;6187437;23;20019;-84
2023/10/29 04:57:35;;;;;;;3.88;1.10;;;;;;;11.95;100.00;99010.25;6215339;23;20005;-85
2023/10/29 05:00:00;;;;;;;6.85;1.23;;;;;;;11.94;100.00;99003.47;6215762;23;20374;-87
2023/10/29 05:02:26;;;;;;;5.22;1.30;;;;;;;12.01;100.00;99013.06;6215861;23;20001;-85
2023/10/29 05:04:51;;;;;;;7.35;1.70;;;;;;;11.99;100.00;99027.09;6215794;23;20015;-82
2023/10/29 05:07:17;;;;;;;6.07;1.30;;;;;;;11.92;100.00;99047.59;6215937;23;20004;-83
2023/10/29 05:09:43;;;;;;;6.55;1.60;;;;;;;11.77;100.00;99059.38;6215589;23;20080;-77
2023/10/29 05:12:08;;;;;;;7.20;1.20;;;;;;;11.64;100.00;99033.91;6215354;23;20000;-82
2023/10/29 05:14:34;;;;;;;4.30;1.20;;;;;;;11.20;100.00;99025.19;6215214;23;20040;-83
2023/10/29 05:16:59;;;;;;;2.70;0.57;;;;;;;11.08;100.00;99019.41;6214684;23;20005;-82
2023/10/29 05:19:25;;;;;;;3.28;0.90;;;;;;;10.92;100.00;99024.38;6214817;23;20008;-82
2023/10/29 05:21:51;;;;;;;2.33;0.80;;;;;;;10.95;100.00;99021.50;6215318;23;20007;-83
2023/10/29 05:24:16;;;;;;;6.47;1.10;;;;;;;11.01;100.00;99026.13;6215468;23;20001;-83
2023/10/29 05:26:42;;;;;;;3.47;1.20;;;;;;;10.77;100.00;98997.41;6215495;23;20032;-83
2023/10/29 05:29:07;;;;;;;5.55;0.95;;;;;;;10.94;100.00;99045.72;6217113;23;20008;-83
2023/10/29 05:31:38;;;;;;;5.45;1.00;;;;;;;10.85;100.00;99041.41;6217338;23;20009;-79
2023/10/29 05:34:05;;;;;;;2.83;1.02;;;;;;;10.86;100.00;99055.94;6216593;23;20119;-82
2023/10/29 05:36:30;;;;;;;5.35;1.00;;;;;;;10.78;100.00;99038.56;6215469;23;20035;-84
2023/10/29 05:38:56;;;;;;;6.10;1.27;;;;;;;10.82;100.00;99037.34;6217324;23;20004;-83
2023/10/29 05:41:21;;;;;;;3.20;1.17;;;;;;;10.78;100.00;99051.47;6216661;23;20004;-81
2023/10/29 05:43:47;;;;;;;3.70;1.10;;;;;;;10.73;100.00;99066.59;6217024;23;20087;-84
2023/10/29 05:46:15;;;;;;;3.92;1.10;;;;;;;10.58;100.00;99061.03;6217187;23;20011;-82
2023/10/29 05:48:40;;;;;;;4.43;0.80;;;;;;;10.66;100.00;99077.59;6216926;23;20004;-83
2023/10/29 05:51:06;;;;;;;6.38;0.95;;;;;;;10.51;100.00;99064.31;6216770;23;20076;-85
2023/10/29 05:53:31;;;;;;;5.10;0.80;;;;;;;10.57;100.00;99079.25;6216505;23;20012;-85
2023/10/29 05:55:57;;;;;;;6.00;1.02;;;;;;;10.46;100.00;99061.34;6216643;23;20080;-83
2023/10/29 05:58:26;;;;;;;3.60;0.80;;;;;;;10.59;100.00;99088.47;6216822;23;20078;-84
2023/10/29 06:00:52;;;;;;;5.35;1.13;;;;;;;10.65;100.00;99096.63;6216558;23;20079;-83
2023/10/29 06:03:17;;;;;;;4.20;0.90;;;;;;;10.55;100.00;99102.63;6216616;23;20087;-84
2023/10/29 06:05:43;;;;;;;4.35;0.93;;;;;;;10.34;100.00;99071.84;6216678;23;20005;-84
2023/10/29 06:08:08;;;;;;;4.53;1.00;;;;;;;10.48;100.00;99105.88;6216822;23;20004;-82
2023/10/29 06:10:33;;;;;;;6.28;1.08;;;;;;;10.55;100.00;99130.19;6216521;23;20296;-84
2023/10/29 06:12:59;;;;;;;7.95;1.42;;;;;;;10.54;100.00;99121.66;6213783;23;20009;-84
2023/10/29 06:15:25;;;;;;;3.58;1.10;;;;;;;10.38;100.00;99102.50;6216907;23;20001;-84
2023/10/29 06:17:53;;;;;;;5.63;1.20;;;;;;;10.48;100.00;99135.09;6216114;23;20083;-85
2023/10/29 06:20:20;;;;;;;5.45;1.23;;;;;;;10.46;100.00;99136.19;6216161;23;20032;-84
2023/10/29 06:22:47;;;;;;;6.97;1.40;;;;;;;10.15;100.00;99092.44;6213824;23;20035;-84
2023/10/29 06:25:13;;;;;;;4.38;1.00;;;;;;;10.46;100.00;99157.66;6215071;23;20304;-85
2023/10/29 06:27:39;;;;;;;5.70;1.30;;;;;;;9.90;100.00;99065.44;6216664;23;20001;-84
2023/10/29 06:30:05;;;;;;;3.65;1.00;;;;;;;10.47;100.00;99159.28;6216501;23;20079;-86
2023/10/29 06:32:30;;;;;;;7.00;1.38;;;;;;;10.47;100.00;99156.69;6216227;23;20008;-86
2023/10/29 06:34:56;;;;;;;6.70;1.30;;;;;;;10.46;100.00;99162.81;6215910;23;20084;-84
2023/10/29 06:37:21;;;;;;;6.75;1.40;;;;;;;10.46;100.00;99160.22;6216318;23;20005;-83
2023/10/29 06:39:46;;;;;;;3.97;1.33;;;;;;;10.28;100.00;99121.38;6215931;23;20415;-86
2023/10/29 06:42:11;;;;;;;5.20;1.25;;;;;;;10.51;100.00;99158.03;6216664;23;20004;-85
2023/10/29 06:44:37;;;;;;;5.85;1.20;;;;;;;10.51;100.00;99168.34;6216487;23;20000;-85
2023/10/29 06:47:03;;;;;;;9.73;1.70;;;;;;;10.40;100.00;99160.75;6216222;23;20423;-84
2023/10/29 06:49:28;;;;;;;8.70;1.65;;;;;;;10.34;100.00;99151.00;6216278;23;20004;-84
2023/10/29 06:51:54;;;;;;;8.52;1.70;;;;;;;10.36;100.00;99164.56;6216415;23;20411;-84
2023/10/29 06:54:20;;;;;;;8.65;1.20;;;;;;;10.21;100.00;99147.81;6215393;23;20357;-83
2023/10/29 06:56:48;;;;;;;7.15;1.58;;;;;;;10.26;100.00;99166.34;6215492;23;20083;-81
2023/10/29 06:59:33;;;;;;;6.38;1.38;;;;;;;10.37;100.00;99188.59;6216090;23;20087;-83
2023/10/29 07:01:59;;;;;;;6.25;1.33;;;;;;;10.14;100.00;99159.66;6215578;23;20008;-83
2023/10/29 07:04:25;;;;;;;6.45;1.50;;;;;;;10.05;100.00;99146.59;6216130;23;20024;-83
2023/10/29 07:06:50;;;;;;;7.75;1.58;;;;;;;10.44;100.00;99212.94;6216303;23;20354;-80
2023/10/29 07:09:15;;;;;;;7.45;1.50;;;;;;;10.28;100.00;99203.94;6216084;23;20004;-78
2023/10/29 07:11:45;;;;;;;6.90;1.60;;;;;;;10.38;100.00;99216.84;6216206;23;20007;-78
2023/10/29 07:14:11;;;;;;;9.98;2.30;;;;;;;10.47;100.00;99233.31;6215992;23;20004;-82
2023/10/29 07:16:43;;;;;;;8.30;1.50;;;;;;;10.52;100.00;99244.88;6216341;23;20004;-81
2023/10/29 07:19:09;;;;;;;8.02;1.83;;;;;;;10.45;100.00;99236.03;6214165;23;20032;-84
2023/10/29 07:21:34;;;;;;;8.60;1.85;;;;;;;10.58;100.00;99248.66;6215990;23;20016;-85
2023/10/29 07:24:03;;;;;;;9.73;1.77;;;;;;;10.43;100.00;99226.78;6237581;23;20091;-82
2023/10/29 07:26:28;;;;;;;11.65;1.70;;;;;;;10.64;100.00;99250.69;6246945;23;20046;-83
2023/10/29 07:42:23;;;;;;;11.00;1.67;;;;;;;10.81;100.00;99283.56;6246137;22;20012;-85
2023/10/29 08:39:18;;;;;;;6.22;1.20;;;;;;;12.20;100.00;99345.91;6284874;22;20034;-84
2023/10/29 08:46:53;;;;;;;8.00;1.60;;;;;;;11.73;100.00;99223.56;6314869;22;20030;-77
2023/10/29 08:49:19;;;;;;;9.07;1.55;;;;;;;12.63;100.00;99360.81;6315501;22;20003;-76
2023/10/29 08:51:44;;;;;;;10.23;1.70;;;;;;;12.35;100.00;99318.59;6315289;22;20034;-80
2023/10/29 08:54:09;;;;;;;6.53;1.30;;;;;;;12.52;100.00;99349.84;6315538;22;20006;-82
2023/10/29 08:56:36;;;;;;;8.23;1.75;;;;;;;12.55;100.00;99365.09;6315901;22;20036;-80
2023/10/29 08:59:05;;;;;;;9.07;1.55;;;;;;;12.70;100.00;99393.91;6288455;22;20007;-79
2023/10/29 09:01:33;;;;;;;7.75;1.30;;;;;;;12.63;100.00;99367.75;6313974;22;20098;-81
2023/10/29 09:04:00;;;;;;;7.38;1.70;;;;;;;12.78;100.00;99384.47;6315566;22;20324;-78
2023/10/29 09:06:26;;;;;;;9.18;2.03;;;;;;;12.89;100.00;99404.97;6315152;22;20027;-84
2023/10/29 09:08:52;;;;;;;7.00;1.60;;;;;;;13.01;100.00;99410.75;6315892;22;20003;-79
2023/10/29 09:11:17;;;;;;;9.65;1.95;;;;;;;13.00;100.00;99408.31;6315170;22;20337;-79
2023/10/29 09:13:43;;;;;;;6.53;1.42;;;;;;;13.12;100.00;99426.09;6315688;22;19999;-76
2023/10/29 09:16:08;;;;;;;9.77;1.67;;;;;;;13.14;100.00;99403.41;6315095;22;20045;-79
2023/10/29 09:18:34;;;;;;;5.90;1.70;;;;;;;13.34;100.00;99429.22;6315221;22;20417;-79
2023/10/29 09:20:59;;;;;;;7.63;1.70;;;;;;;13.33;100.00;99422.41;6315021;22;20413;-78
2023/10/29 09:23:25;;;;;;;6.32;1.40;;;;;;;13.02;100.00;99391.66;6287642;22;20038;-77
2023/10/29 09:25:51;;;;;;;9.40;1.65;;;;;;;13.21;100.00;99432.19;6287126;22;20429;-77
2023/10/29 09:28:17;;;;;;;8.05;1.40;;;;;;;13.05;100.00;99411.25;6315128;22;20003;-79
2023/10/29 09:30:42;;;;;;;7.10;1.40;;;;;;;13.05;100.00;99411.25;6315496;22;19999;-80
2023/10/29 09:33:09;;;;;;;6.47;1.55;;;;;;;13.10;100.00;99432.38;6309677;22;20003;-80
2023/10/29 09:35:36;;;;;;;8.82;1.60;;;;;;;13.00;100.00;99416.91;6308063;22;20345;-80
2023/10/29 09:38:01;;;;;;;7.20;1.45;;;;;;;13.13;100.00;99432.09;6308266;22;20005;-78
2023/10/29 09:40:26;;;;;;;9.52;1.70;;;;;;;13.18;100.00;99419.50;6307926;22;20031;-80
2023/10/29 09:42:54;;;;;;;6.38;1.50;;;;;;;13.35;100.00;99402.34;6281075;22;20429;-80
2023/10/29 09:45:24;;;;;;;8.60;1.80;;;;;;;13.66;100.00;99439.88;6308024;22;20011;-78
2023/10/29 09:47:50;;;;;;;9.07;1.42;;;;;;;13.75;100.00;99444.16;6308243;22;20084;-77
2023/10/29 09:50:15;;;;;;;7.72;1.27;;;;;;;13.80;100.00;99424.75;6307988;22;20011;-78
2023/10/29 09:52:42;;;;;;;8.18;1.70;;;;;;;13.74;100.00;99426.16;6280664;22;20070;-79
2023/10/29 09:55:08;;;;;;;7.45;1.95;;;;;;;13.62;100.00;99427.38;6307623;22;20008;-79
2023/10/29 09:57:34;;;;;;;9.75;1.90;;;;;;;13.53;100.00;99423.88;6308031;22;20006;-79
2023/10/29 09:59:59;;;;;;;8.00;1.65;;;;;;;13.43;100.00;99429.16;6308012;22;19999;-83
2023/10/29 10:02:27;;;;;;;8.43;1.27;;;;;;;13.42;100.00;99442.28;6308461;22;20010;-79
2023/10/29 10:15:21;;;;;;;9.18;1.60;;;;;;;13.52;100.00;99406.69;6296380;22;20031;-79
2023/10/29 12:02:32;;;;;;;10.55;2.22;;;;;;;13.05;100.00;99227.28;6268560;22;20098;-81
2023/10/29 12:22:52;;;;;;;11.00;3.28;;;;;;;13.95;100.00;99340.16;6275752;22;20016;-78
2023/10/29 12:25:33;;;;;;;14.05;2.78;;;;;;;12.92;100.00;99175.84;6246787;22;20011;-81
2023/10/29 12:28:36;;;;;;;7.25;1.70;;;;;;;14.04;100.00;99345.25;6275796;22;20011;-77
2023/10/29 12:31:03;;;;;;;8.73;2.55;;;;;;;13.64;100.00;99280.16;6275817;22;20438;-78
2023/10/29 12:33:33;;;;;;;8.63;1.98;;;;;;;13.84;100.00;99319.69;6275715;22;20025;-77
2023/10/29 12:37:06;;;;;;;;;;;;;;;;;;;;;
2023/10/29 12:43:02;;;;;;;8.93;1.63;;;;;;;13.07;100.00;99184.69;6274304;22;20027;-79
2023/10/29 12:45:35;;;;;;;10.75;2.05;;;;;;;13.10;100.00;99199.13;6276227;22;20038;-82
2023/10/29 12:48:11;;;;;;;8.63;2.05;;;;;;;13.93;100.00;99350.72;6276107;22;19999;-81
2023/10/29 12:50:51;;;;;;;7.18;1.70;;;;;;;13.76;100.00;99338.59;6275923;22;20000;-81
2023/10/29 12:53:22;;;;;;;8.68;2.10;;;;;;;13.73;100.00;99351.88;6276048;22;20003;-81
2023/10/29 12:55:47;;;;;;;9.05;1.98;;;;;;;13.62;100.00;99334.81;6275575;22;19999;-81
2023/10/29 12:58:12;;;;;;;9.35;1.73;;;;;;;13.61;100.00;99347.94;6275722;22;20047;-80
2023/10/29 13:00:38;;;;;;;9.32;1.67;;;;;;;13.44;100.00;99337.44;6275515;22;20007;-81
2023/10/29 13:03:07;;;;;;;9.32;1.77;;;;;;;13.43;100.00;99335.00;6275731;22;20082;-76
2023/10/29 13:05:33;;;;;;;9.07;1.90;;;;;;;13.59;100.00;99361.06;6275572;22;20011;-82
2023/10/29 13:07:59;;;;;;;6.30;1.65;;;;;;;13.62;100.00;99341.78;6277012;22;20303;-81
2023/10/29 13:10:24;;;;;;;6.10;1.73;;;;;;;13.65;100.00;99341.47;6277343;22;20083;-78
2023/10/29 13:12:50;;;;;;;9.10;2.00;;;;;;;13.67;100.00;99327.38;6250055;22;20456;-81
2023/10/29 13:15:26;;;;;;;10.85;1.98;;;;;;;13.54;100.00;99301.03;6277968;22;20003;-76
2023/10/29 13:17:51;;;;;;;8.15;1.88;;;;;;;13.65;100.00;99312.91;6277786;22;20333;-82
2023/10/29 13:20:18;;;;;;;10.77;2.08;;;;;;;13.66;100.00;99306.75;6250393;22;20010;-80
2023/10/29 13:22:43;;;;;;;5.72;1.45;;;;;;;13.38;100.00;99260.28;6277256;22;20011;-79
2023/10/29 13:25:09;;;;;;;7.70;1.70;;;;;;;13.58;100.00;99291.19;6277072;22;20007;-81
2023/10/29 13:27:34;;;;;;;6.70;1.55;;;;;;;13.46;100.00;99288.81;6277277;22;20054;-81
2023/10/29 13:30:00;;;;;;;6.82;1.38;;;;;;;13.46;100.00;99288.81;6277201;22;20004;-81
2023/10/29 13:32:25;;;;;;;10.57;1.85;;;;;;;13.16;100.00;99277.06;6277308;22;20077;-81
2023/10/29 13:34:59;;;;;;;6.85;1.60;;;;;;;12.92;100.00;99256.97;6276698;22;20011;-80
2023/10/29 13:37:26;;;;;;;6.38;1.50;;;;;;;12.83;100.00;99236.34;6277550;22;20326;-82
2023/10/29 13:39:55;;;;;;;7.55;1.60;;;;;;;12.82;100.00;99256.25;6277006;22;20464;-77
2023/10/29 13:42:22;;;;;;;7.03;2.10;;;;;;;13.01;100.00;99317.47;6250075;22;20093;-81
2023/10/29 13:45:00;;;;;;;6.75;1.85;;;;;;;12.85;100.00;99330.25;6277004;22;20004;-78
2023/10/29 13:47:25;;;;;;;9.75;1.50;;;;;;;12.65;100.00;99314.03;6276697;22;20006;-81
2023/10/29 13:49:51;;;;;;;7.57;2.05;;;;;;;12.39;100.00;99308.78;6277095;22;20004;-82
2023/10/29 13:52:16;;;;;;;9.18;1.90;;;;;;;12.18;100.00;99295.25;6276821;22;20003;-83
2023/10/29 13:54:42;;;;;;;6.30;1.42;;;;;;;11.82;100.00;99245.19;6276758;22;20004;-82
2023/10/29 13:57:08;;;;;;;7.38;1.95;;;;;;;11.88;100.00;99260.94;6277011;22;20000;-82
2023/10/29 13:59:34;;;;;;;7.88;1.50;;;;;;;11.61;100.00;99219.53;6249734;22;20014;-80
2023/10/29 14:01:59;;;;;;;8.18;1.50;;;;;;;12.09;100.00;99281.38;6275834;22;20056;-83
2023/10/29 14:04:24;;;;;;;9.23;1.40;;;;;;;11.91;100.00;99252.91;6276776;22;20003;-81
2023/10/29 14:06:50;;;;;;;9.13;1.70;;;;;;;12.02;100.00;99251.91;6250044;22;20004;-83
2023/10/29 14:09:15;;;;;;;8.02;1.95;;;;;;;12.14;100.00;99263.69;6277025;22;20031;-83
2023/10/29 14:11:40;;;;;;;7.57;1.52;;;;;;;12.03;100.00;99228.47;6276858;22;20046;-82
2023/10/29 14:14:07;;;;;;;8.55;1.88;;;;;;;12.37;100.00;99273.63;6276850;22;20000;-82
2023/10/29 14:16:45;;;;;;;6.95;2.13;;;;;;;12.19;100.00;99255.47;6248902;22;20078;-81
2023/10/29 14:19:10;;;;;;;10.55;2.95;;;;;;;12.38;100.00;99272.66;6276684;22;20008;-83
2023/10/29 14:21:52;;;;;;;8.50;2.40;;;;;;;11.66;100.00;99152.69;6276422;22;20107;-81
2023/10/29 14:24:21;;;;;;;9.45;3.70;;;;;;;11.93;100.00;99213.97;6276744;22;20010;-80
2023/10/29 14:26:51;;;;;;;12.45;5.40;;;;;;;11.94;100.00;99206.03;6276359;22;20057;-82
2023/10/29 14:29:25;;;;;;;9.50;4.82;;;;;;;11.83;100.00;99187.34;6276611;22;20015;-80
2023/10/29 14:31:52;;;;;;;7.40;3.13;;;;;;;12.16;100.00;99229.88;6276732;22;20027;-80
2023/10/29 14:34:18;;;;;;;9.90;3.25;;;;;;;11.77;100.00;99173.16;6276589;22;20004;-82
2023/10/29 14:36:43;;;;;;;10.52;2.67;;;;;;;11.85;100.00;99177.66;6276723;22;20135;-78
2023/10/29 14:39:09;;;;;;;10.73;3.03;;;;;;;11.87;100.00;99179.13;6276849;22;20327;-76
2023/10/29 14:41:34;;;;;;;9.38;2.33;;;;;;;12.09;100.00;99215.88;6248663;22;20004;-81
2023/10/29 14:44:00;;;;;;;8.52;2.08;;;;;;;11.42;100.00;99111.84;6276692;22;20007;-79
2023/10/29 14:46:25;;;;;;;9.45;2.17;;;;;;;12.01;100.00;99198.53;6248821;22;20069;-77
2023/10/29 14:48:51;;;;;;;6.80;1.80;;;;;;;12.10;100.00;99208.00;6275705;22;20019;-77
2023/10/29 14:51:17;;;;;;;8.85;1.80;;;;;;;12.16;100.00;99209.19;6276569;22;20303;-76
2023/10/29 14:53:42;;;;;;;4.30;1.23;;;;;;;12.06;100.00;99179.00;6276299;22;20465;-76
2023/10/29 14:56:07;;;;;;;4.43;1.10;;;;;;;11.69;100.00;99149.78;6275517;22;20023;-75
2023/10/29 14:58:33;;;;;;;6.68;1.33;;;;;;;11.89;100.00;99213.41;6276195;22;20414;-77
2023/10/29 15:01:01;;;;;;;4.30;1.20;;;;;;;12.09;100.00;99234.81;6275937;22;20007;-77
2023/10/29 15:03:32;;;;;;;5.38;2.10;;;;;;;11.90;100.00;99209.91;6276193;22;20003;-75
2023/10/29 15:05:58;;;;;;;5.50;1.63;;;;;;;12.13;100.00;99251.69;6276501;22;20003;-74
2023/10/29 15:08:24;;;;;;;3.90;1.38;;;;;;;12.15;100.00;99256.72;6276309;22;20413;-76
2023/10/29 15:10:51;;;;;;;4.15;1.58;;;;;;;12.16;100.00;99253.19;6276119;22;20004;-77
2023/10/29 15:13:16;;;;;;;4.22;1.10;;;;;;;12.17;100.00;99245.25;6276464;22;20058;-74
2023/10/29 15:15:41;;;;;;;5.93;1.52;;;;;;;12.07;100.00;99239.31;6276083;22;20003;-77
2023/10/29 15:18:07;;;;;;;3.25;1.30;;;;;;;12.19;100.00;99258.91;6276213;22;20082;-77
2023/10/29 15:20:32;;;;;;;4.00;1.60;;;;;;;12.07;100.00;99262.63;6276162;22;20011;-77
2023/10/29 15:23:01;;;;;;;5.88;1.63;;;;;;;11.79;100.00;99235.91;6276191;22;20377;-75